createdAt,value
2023-03-26T00:00:11.638Z,6.27
2023-03-26T00:05:15.065Z,6.16
2023-03-26T00:10:17.019Z,6.07
2023-03-26T00:15:18.995Z,5.98
2023-03-26T00:20:20.668Z,5.89
2023-03-26T00:25:23.882Z,5.86
2023-03-26T00:30:26.142Z,5.79
2023-03-26T00:35:29.581Z,5.68
2023-03-26T00:40:32.107Z,5.61
2023-03-26T00:45:33.621Z,5.52
2023-03-26T00:50:35.596Z,5.47
2023-03-26T00:55:37.454Z,5.46
2023-03-26T01:00:46.840Z,5.47
2023-03-26T01:05:53.013Z,5.44
2023-03-26T01:11:03.493Z,5.38
2023-03-26T01:16:20.206Z,5.42
2023-03-26T01:21:30.490Z,5.49
2023-03-26T01:26:32.059Z,5.55
2023-03-26T01:31:43.627Z,5.62
2023-03-26T01:36:53.634Z,5.68
2023-03-26T01:42:02.951Z,5.73
2023-03-26T01:47:06.446Z,5.81
2023-03-26T01:52:16.614Z,5.86
2023-03-26T01:57:27.357Z,5.93
2023-03-26T02:02:44.768Z,5.99
2023-03-26T02:08:05.529Z,6.05
2023-03-26T02:13:07.347Z,6.10
2023-03-26T02:18:13.548Z,6.15
2023-03-26T02:23:15.810Z,6.21
2023-03-26T02:28:17.298Z,6.26
2023-03-26T02:33:18.805Z,6.29
2023-03-26T02:38:20.897Z,6.36
2023-03-26T02:43:22.767Z,6.38
2023-03-26T02:48:24.282Z,6.39
2023-03-26T02:53:29.981Z,6.29
2023-03-26T02:58:31.914Z,6.23
2023-03-26T03:03:34.594Z,6.28
2023-03-26T03:08:36.295Z,6.37
2023-03-26T03:13:37.871Z,6.43
2023-03-26T03:18:39.496Z,6.47
2023-03-26T03:23:41.032Z,6.52
2023-03-26T03:28:43.424Z,6.55
2023-03-26T03:33:46.700Z,6.55
2023-03-26T03:38:49.050Z,6.57
2023-03-26T03:43:52.253Z,6.59
2023-03-26T03:48:53.794Z,6.58
2023-03-26T03:53:55.940Z,6.51
2023-03-26T03:58:58.480Z,6.32
2023-03-26T04:04:00.703Z,6.10
2023-03-26T04:09:02.563Z,5.90
2023-03-26T04:14:04.138Z,5.84
2023-03-26T04:19:05.690Z,5.85
2023-03-26T04:24:07.441Z,5.89
2023-03-26T04:29:12.993Z,5.89
2023-03-26T04:34:26.428Z,5.82
2023-03-26T04:39:29.398Z,5.74
2023-03-26T04:44:32.390Z,5.69
2023-03-26T04:49:33.919Z,5.74
2023-03-26T04:54:36.269Z,5.82
2023-03-26T04:59:37.768Z,5.90
2023-03-26T05:04:43.953Z,6.00
2023-03-26T05:09:45.736Z,6.09
2023-03-26T05:14:47.549Z,6.15
2023-03-26T05:19:49.236Z,6.14
2023-03-26T05:24:51.320Z,6.27
2023-03-26T05:29:52.826Z,6.49
2023-03-26T05:34:54.349Z,6.62
2023-03-26T05:39:56.334Z,6.72
2023-03-26T05:44:57.834Z,6.84
2023-03-26T05:49:59.521Z,6.97
2023-03-26T05:55:01.618Z,7.07
2023-03-26T06:00:06.263Z,7.19
2023-03-26T06:05:08.620Z,7.30
2023-03-26T06:10:10.978Z,7.42
2023-03-26T06:15:20.040Z,7.54
2023-03-26T06:20:21.607Z,7.74
2023-03-26T06:25:23.134Z,8.08
2023-03-26T06:30:24.734Z,8.40
2023-03-26T06:35:26.552Z,8.47
2023-03-26T06:40:29.084Z,8.32
2023-03-26T06:45:33.117Z,8.18
2023-03-26T06:50:34.666Z,7.97
2023-03-26T06:55:36.180Z,7.73
2023-03-26T07:00:38.073Z,7.41
2023-03-26T07:05:42.694Z,7.12
2023-03-26T07:10:44.300Z,6.99
2023-03-26T07:15:46.367Z,7.06
2023-03-26T07:20:48.300Z,7.51
2023-03-26T07:25:50.472Z,7.91
2023-03-26T07:31:27.288Z,8.58
2023-03-26T07:36:47.270Z,9.12
2023-03-26T07:42:16.485Z,9.48
2023-03-26T07:47:29.863Z,9.63
2023-03-26T07:52:31.740Z,10.12
2023-03-26T07:57:50.202Z,10.33
2023-03-26T08:03:34.674Z,10.26
2023-03-26T08:08:50.999Z,10.00
2023-03-26T08:14:14.485Z,10.05
2023-03-26T08:19:22.540Z,10.44
2023-03-26T08:24:39.028Z,10.46
2023-03-26T08:30:01.712Z,10.48
2023-03-26T08:35:04.499Z,10.83
2023-03-26T08:40:07.176Z,10.85
2023-03-26T08:45:40.369Z,10.71
2023-03-26T08:50:59.345Z,10.33
2023-03-26T08:56:42.340Z,10.14
2023-03-26T09:02:24.372Z,10.30
2023-03-26T09:07:48.964Z,10.47
2023-03-26T09:13:06.348Z,10.57
2023-03-26T09:18:32.603Z,11.31
2023-03-26T09:24:03.489Z,11.65
2023-03-26T09:29:32.295Z,11.41
2023-03-26T09:35:11.883Z,11.18
2023-03-26T09:40:20.618Z,11.11
2023-03-26T09:45:53.018Z,11.30
2023-03-26T09:51:12.076Z,11.39
2023-03-26T09:56:26.476Z,11.32
2023-03-26T10:02:08.594Z,11.09
2023-03-26T10:07:45.015Z,11.34
2023-03-26T10:12:57.712Z,11.63
2023-03-26T10:18:30.591Z,11.75
2023-03-26T10:23:34.811Z,12.07
2023-03-26T10:28:56.935Z,12.10
2023-03-26T10:34:28.883Z,12.01
2023-03-26T10:39:46.995Z,14.96
2023-03-26T10:45:17.902Z,20.41
2023-03-26T10:50:57.340Z,19.00
2023-03-26T10:56:16.814Z,15.99
2023-03-26T11:01:28.958Z,16.13
2023-03-26T11:06:41.962Z,15.07
2023-03-26T11:11:48.388Z,16.39
2023-03-26T11:17:09.040Z,17.45
2023-03-26T11:22:41.405Z,17.14
2023-03-26T11:27:53.104Z,15.26
2023-03-26T11:32:59.870Z,17.52
2023-03-26T11:38:17.272Z,18.72
2023-03-26T11:43:26.613Z,16.65
2023-03-26T11:48:33.333Z,15.03
2023-03-26T11:53:38.726Z,15.44
2023-03-26T11:59:01.213Z,19.58
2023-03-26T12:04:11.179Z,20.72
2023-03-26T12:09:17.720Z,19.49
2023-03-26T12:14:24.566Z,17.71
2023-03-26T12:19:29.154Z,15.93
2023-03-26T12:24:36.444Z,14.62
2023-03-26T12:29:38.386Z,13.57
2023-03-26T12:34:40.749Z,13.91
2023-03-26T12:40:09.450Z,14.76
2023-03-26T12:45:07.141Z,13.50
2023-03-26T12:50:14.646Z,12.74
2023-03-26T12:55:45.906Z,12.45
2023-03-26T13:00:57.171Z,12.14
2023-03-26T13:06:06.967Z,12.11
2023-03-26T13:11:30.642Z,12.09
2023-03-26T13:16:48.587Z,15.21
2023-03-26T13:22:24.777Z,18.39
2023-03-26T13:27:42.013Z,17.79
2023-03-26T13:33:15.901Z,19.04
2023-03-26T13:38:40.727Z,17.49
2023-03-26T13:43:48.288Z,15.40
2023-03-26T13:49:05.552Z,14.04
2023-03-26T13:54:09.900Z,13.17
2023-03-26T13:59:40.634Z,12.01
2023-03-26T14:04:49.563Z,11.19
2023-03-26T14:10:01.828Z,12.22
2023-03-26T14:15:26.674Z,13.66
2023-03-26T14:20:56.560Z,16.10
2023-03-26T14:26:19.818Z,17.81
2023-03-26T14:31:51.498Z,18.63
2023-03-26T14:37:27.031Z,18.38
2023-03-26T14:42:37.399Z,16.25
2023-03-26T14:47:55.483Z,14.71
2023-03-26T14:53:01.792Z,13.62
2023-03-26T14:58:36.848Z,12.83
2023-03-26T15:04:16.855Z,11.93
2023-03-26T15:09:56.372Z,11.33
2023-03-26T15:14:57.890Z,10.97
2023-03-26T15:20:36.844Z,12.07
2023-03-26T15:26:16.042Z,13.26
2023-03-26T15:31:37.305Z,14.58
2023-03-26T15:37:17.696Z,15.47
2023-03-26T15:42:52.400Z,15.92
2023-03-26T15:48:12.451Z,15.72
2023-03-26T15:53:26.638Z,14.44
2023-03-26T15:58:44.191Z,13.76
2023-03-26T16:04:06.021Z,13.99
2023-03-26T16:09:40.417Z,14.07
2023-03-26T16:15:20.137Z,14.04
2023-03-26T16:20:35.291Z,14.26
2023-03-26T16:25:54.635Z,13.97
2023-03-26T16:31:23.486Z,12.88
2023-03-26T16:36:35.523Z,11.94
2023-03-26T16:41:39.854Z,11.25
2023-03-26T16:47:13.875Z,10.74
2023-03-26T16:52:34.571Z,10.32
2023-03-26T16:57:45.935Z,9.99
2023-03-26T17:03:13.106Z,9.70
2023-03-26T17:08:14.938Z,9.39
2023-03-26T17:13:55.450Z,9.03
2023-03-26T17:19:28.172Z,8.64
2023-03-26T17:24:55.870Z,8.30
2023-03-26T17:30:23.883Z,8.02
2023-03-26T17:35:45.076Z,7.91
2023-03-26T17:40:55.203Z,7.70
2023-03-26T17:46:02.876Z,7.49
2023-03-26T17:51:33.638Z,7.24
2023-03-26T17:56:37.877Z,6.95
2023-03-26T18:01:44.420Z,6.67
2023-03-26T18:07:16.718Z,6.49
2023-03-26T18:12:41.420Z,6.31
2023-03-26T18:17:46.286Z,6.17
2023-03-26T18:22:49.476Z,6.11
2023-03-26T18:27:51.492Z,6.06
2023-03-26T18:33:00.992Z,5.88
2023-03-26T18:38:04.098Z,5.67
2023-03-26T18:43:06.125Z,5.50
2023-03-26T18:48:10.541Z,5.34
2023-03-26T18:53:29.878Z,5.22
2023-03-26T18:58:39.157Z,5.14
2023-03-26T19:03:44.642Z,5.06
2023-03-26T19:08:48.262Z,4.99
2023-03-26T19:14:04.488Z,4.94
2023-03-26T19:19:07.573Z,4.94
2023-03-26T19:24:12.040Z,4.94
2023-03-26T19:29:17.344Z,5.00
2023-03-26T19:34:31.681Z,5.10
2023-03-26T19:39:44.083Z,5.21
2023-03-26T19:44:46.312Z,5.24
2023-03-26T19:49:51.268Z,5.18
2023-03-26T19:54:59.125Z,5.16
2023-03-26T20:00:07.903Z,5.21
2023-03-26T20:05:19.557Z,5.09
2023-03-26T20:10:21.136Z,4.98
2023-03-26T20:15:25.730Z,4.85
2023-03-26T20:20:30.692Z,4.80
2023-03-26T20:25:33.961Z,4.72
2023-03-26T20:30:38.036Z,4.69
2023-03-26T20:35:39.881Z,4.65
2023-03-26T20:40:42.402Z,4.57
2023-03-26T20:45:45.901Z,4.46
2023-03-26T20:50:50.764Z,4.34
2023-03-26T20:55:52.575Z,4.25
2023-03-26T21:00:56.955Z,4.16
2023-03-26T21:06:04.073Z,4.13
2023-03-26T21:11:16.114Z,4.15
2023-03-26T21:16:28.592Z,4.14
2023-03-26T21:21:47.652Z,4.09
2023-03-26T21:27:12.906Z,4.00
2023-03-26T21:32:15.097Z,3.89
2023-03-26T21:37:19.057Z,3.78
2023-03-26T21:42:20.905Z,3.71
2023-03-26T21:47:23.252Z,3.66
2023-03-26T21:52:25.389Z,3.56
2023-03-26T21:57:45.388Z,3.56
2023-03-26T22:03:08.409Z,3.67
2023-03-26T22:08:25.059Z,3.85
2023-03-26T22:13:27.308Z,4.04
2023-03-26T22:18:30.121Z,4.19
2023-03-26T22:23:36.708Z,4.31
2023-03-26T22:28:38.427Z,4.34
2023-03-26T22:33:43.477Z,4.26
2023-03-26T22:38:45.552Z,4.29
2023-03-26T22:43:47.434Z,4.26
2023-03-26T22:48:49.374Z,4.24
2023-03-26T22:53:52.075Z,4.27
2023-03-26T22:58:53.578Z,4.28
2023-03-26T23:03:55.096Z,4.27
2023-03-26T23:08:57.162Z,4.26
2023-03-26T23:13:59.188Z,4.27
2023-03-26T23:19:00.734Z,4.24
2023-03-26T23:24:02.754Z,4.21
2023-03-26T23:29:05.193Z,4.18
2023-03-26T23:34:07.042Z,4.18
2023-03-26T23:39:09.391Z,4.19
2023-03-26T23:44:14.499Z,4.18
2023-03-26T23:49:16.239Z,4.13
2023-03-26T23:54:19.166Z,4.09
2023-03-26T23:59:21.056Z,4.06
